sensor_id;sensor_type;location;lat;lon;timestamp;P1;durP1;ratioP1;P2;durP2;ratioP2
40983;SDS011;26714;51.332;12.406;2024-02-26T00:02:36;12.82;;;6.32;;
40983;SDS011;26714;51.332;12.406;2024-02-26T00:05:09;12.50;;;5.95;;
40983;SDS011;26714;51.332;12.406;2024-02-26T00:07:47;14.32;;;6.95;;
40983;SDS011;26714;51.332;12.406;2024-02-26T00:10:26;16.08;;;7.30;;
40983;SDS011;26714;51.332;12.406;2024-02-26T00:12:59;15.40;;;7.30;;
40983;SDS011;26714;51.332;12.406;2024-02-26T00:15:37;17.38;;;6.90;;
40983;SDS011;26714;51.332;12.406;2024-02-26T00:18:11;13.48;;;7.15;;
40983;SDS011;26714;51.332;12.406;2024-02-26T00:21:11;15.80;;;7.22;;
40983;SDS011;26714;51.332;12.406;2024-02-26T00:23:53;12.85;;;6.75;;
40983;SDS011;26714;51.332;12.406;2024-02-26T00:26:34;15.50;;;7.45;;
40983;SDS011;26714;51.332;12.406;2024-02-26T00:29:10;17.20;;;7.82;;
40983;SDS011;26714;51.332;12.406;2024-02-26T00:32:00;18.17;;;7.93;;
40983;SDS011;26714;51.332;12.406;2024-02-26T00:34:55;15.55;;;8.18;;
40983;SDS011;26714;51.332;12.406;2024-02-26T00:37:50;13.73;;;7.55;;
40983;SDS011;26714;51.332;12.406;2024-02-26T00:40:50;15.43;;;7.60;;
40983;SDS011;26714;51.332;12.406;2024-02-26T00:43:43;15.15;;;8.60;;
40983;SDS011;26714;51.332;12.406;2024-02-26T00:46:21;16.90;;;8.65;;
40983;SDS011;26714;51.332;12.406;2024-02-26T00:48:57;17.45;;;8.93;;
40983;SDS011;26714;51.332;12.406;2024-02-26T00:51:36;17.35;;;8.85;;
40983;SDS011;26714;51.332;12.406;2024-02-26T00:54:07;18.05;;;9.25;;
40983;SDS011;26714;51.332;12.406;2024-02-26T00:59:15;15.73;;;8.20;;
40983;SDS011;26714;51.332;12.406;2024-02-26T01:01:57;15.30;;;8.18;;
40983;SDS011;26714;51.332;12.406;2024-02-26T01:04:39;18.85;;;8.68;;
40983;SDS011;26714;51.332;12.406;2024-02-26T01:07:33;17.70;;;8.65;;
40983;SDS011;26714;51.332;12.406;2024-02-26T01:10:11;18.10;;;9.23;;
40983;SDS011;26714;51.332;12.406;2024-02-26T01:12:48;15.25;;;8.50;;
40983;SDS011;26714;51.332;12.406;2024-02-26T01:15:27;16.10;;;8.68;;
40983;SDS011;26714;51.332;12.406;2024-02-26T01:17:55;19.35;;;9.25;;
40983;SDS011;26714;51.332;12.406;2024-02-26T01:20:24;13.55;;;8.02;;
40983;SDS011;26714;51.332;12.406;2024-02-26T01:23:02;15.77;;;8.98;;
40983;SDS011;26714;51.332;12.406;2024-02-26T01:25:33;16.75;;;9.38;;
40983;SDS011;26714;51.332;12.406;2024-02-26T01:28:16;19.45;;;9.48;;
40983;SDS011;26714;51.332;12.406;2024-02-26T01:30:46;16.60;;;9.13;;
40983;SDS011;26714;51.332;12.406;2024-02-26T01:33:19;18.92;;;10.15;;
40983;SDS011;26714;51.332;12.406;2024-02-26T01:35:49;16.17;;;9.40;;
40983;SDS011;26714;51.332;12.406;2024-02-26T01:38:28;17.08;;;9.00;;
40983;SDS011;26714;51.332;12.406;2024-02-26T01:41:04;17.80;;;9.93;;
40983;SDS011;26714;51.332;12.406;2024-02-26T01:43:43;17.23;;;9.80;;
40983;SDS011;26714;51.332;12.406;2024-02-26T01:46:14;18.23;;;9.43;;
40983;SDS011;26714;51.332;12.406;2024-02-26T01:48:44;16.98;;;8.77;;
40983;SDS011;26714;51.332;12.406;2024-02-26T01:51:14;16.88;;;9.13;;
40983;SDS011;26714;51.332;12.406;2024-02-26T01:53:46;18.73;;;9.18;;
40983;SDS011;26714;51.332;12.406;2024-02-26T01:56:24;14.40;;;9.18;;
40983;SDS011;26714;51.332;12.406;2024-02-26T01:59:19;17.95;;;10.25;;
40983;SDS011;26714;51.332;12.406;2024-02-26T02:02:11;17.90;;;9.88;;
40983;SDS011;26714;51.332;12.406;2024-02-26T02:04:48;20.67;;;9.73;;
40983;SDS011;26714;51.332;12.406;2024-02-26T02:07:22;15.45;;;8.45;;
40983;SDS011;26714;51.332;12.406;2024-02-26T02:10:15;18.17;;;8.70;;
40983;SDS011;26714;51.332;12.406;2024-02-26T02:12:49;18.17;;;9.10;;
40983;SDS011;26714;51.332;12.406;2024-02-26T02:15:29;17.40;;;9.48;;
40983;SDS011;26714;51.332;12.406;2024-02-26T02:18:06;17.23;;;9.40;;
40983;SDS011;26714;51.332;12.406;2024-02-26T02:20:41;17.75;;;9.05;;
40983;SDS011;26714;51.332;12.406;2024-02-26T02:23:09;16.90;;;8.82;;
40983;SDS011;26714;51.332;12.406;2024-02-26T02:25:37;18.30;;;9.38;;
40983;SDS011;26714;51.332;12.406;2024-02-26T02:28:08;19.65;;;8.60;;
40983;SDS011;26714;51.332;12.406;2024-02-26T02:30:37;17.42;;;9.50;;
40983;SDS011;26714;51.332;12.406;2024-02-26T02:33:07;15.55;;;9.02;;
40983;SDS011;26714;51.332;12.406;2024-02-26T02:35:39;17.48;;;8.82;;
40983;SDS011;26714;51.332;12.406;2024-02-26T02:38:09;17.00;;;9.35;;
40983;SDS011;26714;51.332;12.406;2024-02-26T02:43:36;16.02;;;8.45;;
40983;SDS011;26714;51.332;12.406;2024-02-26T02:46:07;16.50;;;8.88;;
40983;SDS011;26714;51.332;12.406;2024-02-26T02:48:36;18.33;;;9.20;;
40983;SDS011;26714;51.332;12.406;2024-02-26T02:51:10;16.08;;;9.15;;
40983;SDS011;26714;51.332;12.406;2024-02-26T02:56:32;17.05;;;9.13;;
40983;SDS011;26714;51.332;12.406;2024-02-26T02:59:10;17.65;;;8.93;;
40983;SDS011;26714;51.332;12.406;2024-02-26T03:01:48;17.60;;;8.70;;
40983;SDS011;26714;51.332;12.406;2024-02-26T03:04:25;14.73;;;8.35;;
40983;SDS011;26714;51.332;12.406;2024-02-26T03:06:52;15.60;;;7.28;;
40983;SDS011;26714;51.332;12.406;2024-02-26T03:09:24;15.32;;;8.65;;
40983;SDS011;26714;51.332;12.406;2024-02-26T03:11:56;14.40;;;7.80;;
40983;SDS011;26714;51.332;12.406;2024-02-26T03:14:31;14.50;;;7.32;;
40983;SDS011;26714;51.332;12.406;2024-02-26T03:16:59;13.82;;;7.25;;
40983;SDS011;26714;51.332;12.406;2024-02-26T03:19:29;11.85;;;7.22;;
40983;SDS011;26714;51.332;12.406;2024-02-26T03:22:02;13.85;;;7.57;;
40983;SDS011;26714;51.332;12.406;2024-02-26T03:24:36;13.68;;;7.63;;
40983;SDS011;26714;51.332;12.406;2024-02-26T03:27:06;13.15;;;7.57;;
40983;SDS011;26714;51.332;12.406;2024-02-26T03:29:40;13.63;;;7.55;;
40983;SDS011;26714;51.332;12.406;2024-02-26T03:32:11;12.95;;;7.57;;
40983;SDS011;26714;51.332;12.406;2024-02-26T03:34:39;15.13;;;7.82;;
40983;SDS011;26714;51.332;12.406;2024-02-26T03:37:20;15.20;;;8.13;;
40983;SDS011;26714;51.332;12.406;2024-02-26T03:39:53;16.90;;;9.25;;
40983;SDS011;26714;51.332;12.406;2024-02-26T03:42:32;18.90;;;9.10;;
40983;SDS011;26714;51.332;12.406;2024-02-26T03:45:02;16.88;;;9.13;;
40983;SDS011;26714;51.332;12.406;2024-02-26T03:47:53;13.43;;;7.78;;
40983;SDS011;26714;51.332;12.406;2024-02-26T03:50:21;16.13;;;9.63;;
40983;SDS011;26714;51.332;12.406;2024-02-26T03:53:10;19.60;;;9.88;;
40983;SDS011;26714;51.332;12.406;2024-02-26T03:55:45;22.52;;;12.50;;
40983;SDS011;26714;51.332;12.406;2024-02-26T03:58:22;21.77;;;11.53;;
40983;SDS011;26714;51.332;12.406;2024-02-26T04:00:54;19.88;;;10.90;;
40983;SDS011;26714;51.332;12.406;2024-02-26T04:03:55;20.70;;;11.70;;
40983;SDS011;26714;51.332;12.406;2024-02-26T04:06:35;19.65;;;10.80;;
40983;SDS011;26714;51.332;12.406;2024-02-26T04:09:08;19.27;;;11.25;;
40983;SDS011;26714;51.332;12.406;2024-02-26T04:11:50;20.65;;;11.60;;
40983;SDS011;26714;51.332;12.406;2024-02-26T04:14:42;22.08;;;12.05;;
40983;SDS011;26714;51.332;12.406;2024-02-26T04:17:40;21.55;;;12.10;;
40983;SDS011;26714;51.332;12.406;2024-02-26T04:20:13;27.30;;;13.48;;
40983;SDS011;26714;51.332;12.406;2024-02-26T04:25:46;22.10;;;12.23;;
40983;SDS011;26714;51.332;12.406;2024-02-26T04:28:16;24.67;;;13.18;;
40983;SDS011;26714;51.332;12.406;2024-02-26T04:31:10;23.98;;;13.18;;
40983;SDS011;26714;51.332;12.406;2024-02-26T04:34:05;27.77;;;14.18;;
40983;SDS011;26714;51.332;12.406;2024-02-26T04:36:39;24.10;;;13.27;;
40983;SDS011;26714;51.332;12.406;2024-02-26T04:39:19;24.92;;;14.30;;
40983;SDS011;26714;51.332;12.406;2024-02-26T04:41:52;26.48;;;13.63;;
40983;SDS011;26714;51.332;12.406;2024-02-26T04:44:33;25.52;;;13.48;;
40983;SDS011;26714;51.332;12.406;2024-02-26T04:47:30;21.75;;;14.05;;
40983;SDS011;26714;51.332;12.406;2024-02-26T04:50:32;25.45;;;13.98;;
40983;SDS011;26714;51.332;12.406;2024-02-26T04:54:00;29.35;;;13.98;;
40983;SDS011;26714;51.332;12.406;2024-02-26T04:56:47;27.63;;;15.55;;
40983;SDS011;26714;51.332;12.406;2024-02-26T04:59:18;25.73;;;14.88;;
40983;SDS011;26714;51.332;12.406;2024-02-26T05:02:13;25.33;;;14.25;;
40983;SDS011;26714;51.332;12.406;2024-02-26T05:04:50;28.95;;;14.65;;
40983;SDS011;26714;51.332;12.406;2024-02-26T05:07:31;29.08;;;15.45;;
40983;SDS011;26714;51.332;12.406;2024-02-26T05:13:00;26.85;;;13.27;;
40983;SDS011;26714;51.332;12.406;2024-02-26T05:15:41;28.50;;;14.57;;
40983;SDS011;26714;51.332;12.406;2024-02-26T05:18:47;24.80;;;13.00;;
40983;SDS011;26714;51.332;12.406;2024-02-26T05:21:21;30.48;;;14.30;;
40983;SDS011;26714;51.332;12.406;2024-02-26T05:24:15;24.75;;;14.95;;
40983;SDS011;26714;51.332;12.406;2024-02-26T05:26:54;27.45;;;14.00;;
40983;SDS011;26714;51.332;12.406;2024-02-26T05:29:27;29.35;;;15.40;;
40983;SDS011;26714;51.332;12.406;2024-02-26T05:32:09;25.33;;;13.85;;
40983;SDS011;26714;51.332;12.406;2024-02-26T05:34:59;25.55;;;13.50;;
40983;SDS011;26714;51.332;12.406;2024-02-26T05:37:44;28.85;;;14.63;;
40983;SDS011;26714;51.332;12.406;2024-02-26T05:40:19;30.52;;;15.15;;
40983;SDS011;26714;51.332;12.406;2024-02-26T05:42:56;28.35;;;14.38;;
40983;SDS011;26714;51.332;12.406;2024-02-26T05:45:27;24.65;;;14.18;;
40983;SDS011;26714;51.332;12.406;2024-02-26T05:48:00;28.88;;;15.00;;
40983;SDS011;26714;51.332;12.406;2024-02-26T05:50:34;24.60;;;13.43;;
40983;SDS011;26714;51.332;12.406;2024-02-26T05:53:11;25.50;;;13.98;;
40983;SDS011;26714;51.332;12.406;2024-02-26T05:55:55;26.23;;;14.30;;
40983;SDS011;26714;51.332;12.406;2024-02-26T05:58:29;26.90;;;13.27;;
40983;SDS011;26714;51.332;12.406;2024-02-26T06:01:25;27.73;;;14.70;;
40983;SDS011;26714;51.332;12.406;2024-02-26T06:03:53;31.58;;;14.30;;
40983;SDS011;26714;51.332;12.406;2024-02-26T06:06:29;27.98;;;14.82;;
40983;SDS011;26714;51.332;12.406;2024-02-26T06:09:02;27.63;;;14.13;;
40983;SDS011;26714;51.332;12.406;2024-02-26T06:11:37;29.50;;;13.38;;
40983;SDS011;26714;51.332;12.406;2024-02-26T06:14:07;26.05;;;13.77;;
40983;SDS011;26714;51.332;12.406;2024-02-26T06:16:37;18.38;;;9.57;;
40983;SDS011;26714;51.332;12.406;2024-02-26T06:19:11;29.63;;;13.48;;
40983;SDS011;26714;51.332;12.406;2024-02-26T06:21:40;22.60;;;12.52;;
40983;SDS011;26714;51.332;12.406;2024-02-26T06:24:10;27.10;;;13.80;;
40983;SDS011;26714;51.332;12.406;2024-02-26T06:26:44;25.55;;;13.73;;
40983;SDS011;26714;51.332;12.406;2024-02-26T06:31:49;25.92;;;12.80;;
40983;SDS011;26714;51.332;12.406;2024-02-26T06:34:22;25.40;;;12.57;;
40983;SDS011;26714;51.332;12.406;2024-02-26T06:37:00;21.88;;;11.85;;
40983;SDS011;26714;51.332;12.406;2024-02-26T06:39:32;20.42;;;12.40;;
40983;SDS011;26714;51.332;12.406;2024-02-26T06:42:12;21.27;;;12.57;;
40983;SDS011;26714;51.332;12.406;2024-02-26T06:44:46;26.20;;;12.85;;
40983;SDS011;26714;51.332;12.406;2024-02-26T06:47:16;24.58;;;12.75;;
40983;SDS011;26714;51.332;12.406;2024-02-26T06:49:54;20.90;;;12.35;;
40983;SDS011;26714;51.332;12.406;2024-02-26T06:52:33;22.77;;;12.05;;
40983;SDS011;26714;51.332;12.406;2024-02-26T06:55:05;24.45;;;12.93;;
40983;SDS011;26714;51.332;12.406;2024-02-26T06:57:37;27.13;;;12.90;;
40983;SDS011;26714;51.332;12.406;2024-02-26T07:00:06;21.35;;;12.65;;
40983;SDS011;26714;51.332;12.406;2024-02-26T07:02:42;20.02;;;12.10;;
40983;SDS011;26714;51.332;12.406;2024-02-26T07:05:12;27.58;;;13.15;;
40983;SDS011;26714;51.332;12.406;2024-02-26T07:07:41;23.08;;;12.98;;
40983;SDS011;26714;51.332;12.406;2024-02-26T07:10:14;26.58;;;13.57;;
40983;SDS011;26714;51.332;12.406;2024-02-26T07:12:41;23.60;;;12.00;;
40983;SDS011;26714;51.332;12.406;2024-02-26T07:15:10;21.88;;;12.35;;
40983;SDS011;26714;51.332;12.406;2024-02-26T07:17:38;23.35;;;11.82;;
40983;SDS011;26714;51.332;12.406;2024-02-26T07:20:23;22.35;;;11.75;;
40983;SDS011;26714;51.332;12.406;2024-02-26T07:22:51;22.42;;;12.30;;
40983;SDS011;26714;51.332;12.406;2024-02-26T07:25:23;20.60;;;10.90;;
40983;SDS011;26714;51.332;12.406;2024-02-26T07:27:50;20.30;;;12.30;;
40983;SDS011;26714;51.332;12.406;2024-02-26T07:30:20;22.85;;;12.05;;
40983;SDS011;26714;51.332;12.406;2024-02-26T07:32:58;23.13;;;11.88;;
40983;SDS011;26714;51.332;12.406;2024-02-26T07:35:28;22.20;;;11.90;;
40983;SDS011;26714;51.332;12.406;2024-02-26T07:38:04;21.70;;;11.40;;
40983;SDS011;26714;51.332;12.406;2024-02-26T07:40:44;19.77;;;10.85;;
40983;SDS011;26714;51.332;12.406;2024-02-26T07:43:16;21.42;;;11.02;;
40983;SDS011;26714;51.332;12.406;2024-02-26T07:45:49;17.98;;;10.48;;
40983;SDS011;26714;51.332;12.406;2024-02-26T07:48:18;20.95;;;11.18;;
40983;SDS011;26714;51.332;12.406;2024-02-26T07:50:49;22.52;;;11.73;;
40983;SDS011;26714;51.332;12.406;2024-02-26T07:53:23;20.63;;;10.63;;
40983;SDS011;26714;51.332;12.406;2024-02-26T07:55:56;19.13;;;9.65;;
40983;SDS011;26714;51.332;12.406;2024-02-26T07:58:24;20.85;;;11.18;;
40983;SDS011;26714;51.332;12.406;2024-02-26T08:00:52;17.10;;;9.82;;
40983;SDS011;26714;51.332;12.406;2024-02-26T08:03:26;19.13;;;9.40;;
40983;SDS011;26714;51.332;12.406;2024-02-26T08:05:54;20.77;;;10.25;;
40983;SDS011;26714;51.332;12.406;2024-02-26T08:08:23;18.90;;;9.88;;
40983;SDS011;26714;51.332;12.406;2024-02-26T08:10:51;18.92;;;10.82;;
40983;SDS011;26714;51.332;12.406;2024-02-26T08:13:23;20.45;;;10.43;;
40983;SDS011;26714;51.332;12.406;2024-02-26T08:15:54;18.90;;;9.57;;
40983;SDS011;26714;51.332;12.406;2024-02-26T08:18:25;17.52;;;9.38;;
40983;SDS011;26714;51.332;12.406;2024-02-26T08:20:55;21.35;;;9.55;;
40983;SDS011;26714;51.332;12.406;2024-02-26T08:23:25;15.55;;;9.15;;
40983;SDS011;26714;51.332;12.406;2024-02-26T08:26:03;19.33;;;9.93;;
40983;SDS011;26714;51.332;12.406;2024-02-26T08:28:39;17.38;;;8.43;;
40983;SDS011;26714;51.332;12.406;2024-02-26T08:31:13;18.38;;;9.52;;
40983;SDS011;26714;51.332;12.406;2024-02-26T08:34:13;15.95;;;8.80;;
40983;SDS011;26714;51.332;12.406;2024-02-26T08:36:45;19.65;;;9.32;;
40983;SDS011;26714;51.332;12.406;2024-02-26T08:39:16;17.10;;;8.80;;
40983;SDS011;26714;51.332;12.406;2024-02-26T08:41:48;17.35;;;9.07;;
40983;SDS011;26714;51.332;12.406;2024-02-26T08:44:19;13.70;;;8.13;;
40983;SDS011;26714;51.332;12.406;2024-02-26T08:46:50;15.93;;;8.35;;
40983;SDS011;26714;51.332;12.406;2024-02-26T08:49:22;18.98;;;7.53;;
40983;SDS011;26714;51.332;12.406;2024-02-26T08:51:56;18.45;;;9.18;;
40983;SDS011;26714;51.332;12.406;2024-02-26T08:54:29;17.75;;;8.73;;
40983;SDS011;26714;51.332;12.406;2024-02-26T08:57:01;19.67;;;8.40;;
40983;SDS011;26714;51.332;12.406;2024-02-26T08:59:32;17.50;;;8.85;;
40983;SDS011;26714;51.332;12.406;2024-02-26T09:02:02;18.00;;;7.93;;
40983;SDS011;26714;51.332;12.406;2024-02-26T09:04:35;14.30;;;8.18;;
40983;SDS011;26714;51.332;12.406;2024-02-26T09:07:20;16.08;;;7.93;;
40983;SDS011;26714;51.332;12.406;2024-02-26T09:10:07;16.38;;;7.43;;
40983;SDS011;26714;51.332;12.406;2024-02-26T09:12:43;14.52;;;6.97;;
40983;SDS011;26714;51.332;12.406;2024-02-26T09:15:20;15.57;;;6.63;;
40983;SDS011;26714;51.332;12.406;2024-02-26T09:18:15;15.73;;;7.30;;
40983;SDS011;26714;51.332;12.406;2024-02-26T09:21:11;12.32;;;5.95;;
40983;SDS011;26714;51.332;12.406;2024-02-26T09:23:44;15.93;;;7.28;;
40983;SDS011;26714;51.332;12.406;2024-02-26T09:26:21;14.27;;;6.30;;
40983;SDS011;26714;51.332;12.406;2024-02-26T09:28:51;15.88;;;6.32;;
40983;SDS011;26714;51.332;12.406;2024-02-26T09:31:21;12.80;;;6.05;;
40983;SDS011;26714;51.332;12.406;2024-02-26T09:33:49;13.25;;;6.07;;
40983;SDS011;26714;51.332;12.406;2024-02-26T09:36:19;10.10;;;5.80;;
40983;SDS011;26714;51.332;12.406;2024-02-26T09:38:59;10.35;;;5.63;;
40983;SDS011;26714;51.332;12.406;2024-02-26T09:41:35;14.32;;;5.80;;
40983;SDS011;26714;51.332;12.406;2024-02-26T09:44:11;10.30;;;5.10;;
40983;SDS011;26714;51.332;12.406;2024-02-26T09:46:56;10.15;;;4.30;;
40983;SDS011;26714;51.332;12.406;2024-02-26T09:49:39;9.23;;;3.95;;
40983;SDS011;26714;51.332;12.406;2024-02-26T09:52:16;11.57;;;4.18;;
40983;SDS011;26714;51.332;12.406;2024-02-26T09:55:03;9.68;;;4.30;;
40983;SDS011;26714;51.332;12.406;2024-02-26T09:58:08;11.43;;;4.07;;
40983;SDS011;26714;51.332;12.406;2024-02-26T10:01:48;10.30;;;4.43;;
40983;SDS011;26714;51.332;12.406;2024-02-26T10:05:26;10.45;;;4.47;;
40983;SDS011;26714;51.332;12.406;2024-02-26T10:08:43;11.65;;;4.65;;
40983;SDS011;26714;51.332;12.406;2024-02-26T10:11:35;10.00;;;4.13;;
40983;SDS011;26714;51.332;12.406;2024-02-26T10:14:42;8.85;;;3.75;;
40983;SDS011;26714;51.332;12.406;2024-02-26T10:17:54;9.05;;;4.10;;
40983;SDS011;26714;51.332;12.406;2024-02-26T10:21:13;7.68;;;4.05;;
40983;SDS011;26714;51.332;12.406;2024-02-26T10:26:45;10.73;;;3.60;;
40983;SDS011;26714;51.332;12.406;2024-02-26T10:29:41;10.43;;;3.58;;
40983;SDS011;26714;51.332;12.406;2024-02-26T10:32:25;9.52;;;3.70;;
40983;SDS011;26714;51.332;12.406;2024-02-26T10:35:16;9.93;;;3.03;;
40983;SDS011;26714;51.332;12.406;2024-02-26T10:38:32;9.38;;;3.72;;
40983;SDS011;26714;51.332;12.406;2024-02-26T10:42:04;8.00;;;3.50;;
40983;SDS011;26714;51.332;12.406;2024-02-26T10:46:01;8.35;;;3.45;;
40983;SDS011;26714;51.332;12.406;2024-02-26T10:49:53;9.45;;;3.65;;
40983;SDS011;26714;51.332;12.406;2024-02-26T10:53:23;8.38;;;3.90;;
40983;SDS011;26714;51.332;12.406;2024-02-26T10:56:28;7.60;;;3.53;;
40983;SDS011;26714;51.332;12.406;2024-02-26T10:59:20;9.60;;;3.67;;
40983;SDS011;26714;51.332;12.406;2024-02-26T11:10:11;9.90;;;4.40;;
40983;SDS011;26714;51.332;12.406;2024-02-26T11:16:25;8.45;;;4.18;;
40983;SDS011;26714;51.332;12.406;2024-02-26T11:19:04;12.88;;;4.57;;
40983;SDS011;26714;51.332;12.406;2024-02-26T11:22:34;11.80;;;4.28;;
40983;SDS011;26714;51.332;12.406;2024-02-26T11:25:42;9.25;;;4.18;;
40983;SDS011;26714;51.332;12.406;2024-02-26T11:28:16;13.05;;;4.40;;
40983;SDS011;26714;51.332;12.406;2024-02-26T11:31:04;11.15;;;4.35;;
40983;SDS011;26714;51.332;12.406;2024-02-26T11:34:08;12.07;;;4.10;;
40983;SDS011;26714;51.332;12.406;2024-02-26T11:36:54;10.63;;;4.82;;
40983;SDS011;26714;51.332;12.406;2024-02-26T11:40:20;8.02;;;4.50;;
40983;SDS011;26714;51.332;12.406;2024-02-26T11:46:38;8.82;;;4.20;;
40983;SDS011;26714;51.332;12.406;2024-02-26T11:49:44;16.27;;;5.10;;
40983;SDS011;26714;51.332;12.406;2024-02-26T11:52:19;9.80;;;4.50;;
40983;SDS011;26714;51.332;12.406;2024-02-26T11:55:01;10.93;;;4.40;;
40983;SDS011;26714;51.332;12.406;2024-02-26T12:00:44;10.13;;;4.32;;
40983;SDS011;26714;51.332;12.406;2024-02-26T12:04:01;11.55;;;4.72;;
40983;SDS011;26714;51.332;12.406;2024-02-26T12:10:23;11.40;;;5.00;;
40983;SDS011;26714;51.332;12.406;2024-02-26T12:13:10;9.75;;;5.22;;
40983;SDS011;26714;51.332;12.406;2024-02-26T12:15:59;9.80;;;5.32;;
40983;SDS011;26714;51.332;12.406;2024-02-26T12:19:47;11.50;;;5.10;;
40983;SDS011;26714;51.332;12.406;2024-02-26T12:23:51;9.98;;;5.32;;
40983;SDS011;26714;51.332;12.406;2024-02-26T12:30:53;12.82;;;5.43;;
40983;SDS011;26714;51.332;12.406;2024-02-26T12:38:37;14.77;;;6.78;;
40983;SDS011;26714;51.332;12.406;2024-02-26T12:45:26;13.55;;;5.97;;
40983;SDS011;26714;51.332;12.406;2024-02-26T12:49:31;13.17;;;6.10;;
40983;SDS011;26714;51.332;12.406;2024-02-26T12:53:06;13.05;;;5.45;;
40983;SDS011;26714;51.332;12.406;2024-02-26T12:56:14;12.25;;;6.10;;
40983;SDS011;26714;51.332;12.406;2024-02-26T12:59:08;13.95;;;6.47;;
40983;SDS011;26714;51.332;12.406;2024-02-26T13:03:14;16.67;;;5.93;;
40983;SDS011;26714;51.332;12.406;2024-02-26T13:06:46;14.18;;;5.55;;
40983;SDS011;26714;51.332;12.406;2024-02-26T13:10:31;12.07;;;5.63;;
40983;SDS011;26714;51.332;12.406;2024-02-26T13:13:24;11.25;;;5.57;;
40983;SDS011;26714;51.332;12.406;2024-02-26T13:19:57;11.60;;;4.85;;
40983;SDS011;26714;51.332;12.406;2024-02-26T13:22:26;7.63;;;5.00;;
40983;SDS011;26714;51.332;12.406;2024-02-26T13:25:06;11.07;;;4.97;;
40983;SDS011;26714;51.332;12.406;2024-02-26T13:27:51;10.77;;;5.32;;
40983;SDS011;26714;51.332;12.406;2024-02-26T13:33:06;12.70;;;5.30;;
40983;SDS011;26714;51.332;12.406;2024-02-26T13:36:04;13.63;;;5.88;;
40983;SDS011;26714;51.332;12.406;2024-02-26T13:39:23;12.82;;;5.18;;
40983;SDS011;26714;51.332;12.406;2024-02-26T13:41:58;14.65;;;5.72;;
40983;SDS011;26714;51.332;12.406;2024-02-26T13:44:56;12.32;;;5.15;;
40983;SDS011;26714;51.332;12.406;2024-02-26T13:51:05;13.00;;;5.35;;
40983;SDS011;26714;51.332;12.406;2024-02-26T13:54:48;12.45;;;5.47;;
40983;SDS011;26714;51.332;12.406;2024-02-26T14:01:51;9.60;;;5.00;;
40983;SDS011;26714;51.332;12.406;2024-02-26T14:05:09;12.52;;;5.00;;
40983;SDS011;26714;51.332;12.406;2024-02-26T14:08:23;12.55;;;5.32;;
40983;SDS011;26714;51.332;12.406;2024-02-26T14:11:24;10.88;;;5.18;;
40983;SDS011;26714;51.332;12.406;2024-02-26T14:14:40;9.80;;;5.05;;
40983;SDS011;26714;51.332;12.406;2024-02-26T14:17:42;9.35;;;4.75;;
40983;SDS011;26714;51.332;12.406;2024-02-26T14:25:00;10.60;;;5.28;;
40983;SDS011;26714;51.332;12.406;2024-02-26T14:31:18;7.10;;;4.30;;
40983;SDS011;26714;51.332;12.406;2024-02-26T14:34:04;11.68;;;4.80;;
40983;SDS011;26714;51.332;12.406;2024-02-26T14:37:09;13.13;;;4.72;;
40983;SDS011;26714;51.332;12.406;2024-02-26T14:40:14;10.15;;;4.72;;
40983;SDS011;26714;51.332;12.406;2024-02-26T14:49:12;10.57;;;4.47;;
40983;SDS011;26714;51.332;12.406;2024-02-26T14:51:48;10.93;;;4.70;;
40983;SDS011;26714;51.332;12.406;2024-02-26T14:58:14;12.90;;;5.18;;
40983;SDS011;26714;51.332;12.406;2024-02-26T15:01:24;12.43;;;4.80;;
40983;SDS011;26714;51.332;12.406;2024-02-26T15:05:21;6.45;;;4.07;;
40983;SDS011;26714;51.332;12.406;2024-02-26T15:12:43;10.02;;;4.90;;
40983;SDS011;26714;51.332;12.406;2024-02-26T15:16:40;10.95;;;4.43;;
40983;SDS011;26714;51.332;12.406;2024-02-26T15:20:23;9.98;;;4.10;;
40983;SDS011;26714;51.332;12.406;2024-02-26T15:23:36;10.05;;;4.95;;
40983;SDS011;26714;51.332;12.406;2024-02-26T15:26:24;12.50;;;5.15;;
40983;SDS011;26714;51.332;12.406;2024-02-26T15:32:31;12.35;;;5.03;;
40983;SDS011;26714;51.332;12.406;2024-02-26T15:42:26;12.75;;;5.70;;
40983;SDS011;26714;51.332;12.406;2024-02-26T15:49:19;12.73;;;6.20;;
40983;SDS011;26714;51.332;12.406;2024-02-26T15:52:38;10.93;;;6.95;;
40983;SDS011;26714;51.332;12.406;2024-02-26T15:56:30;18.63;;;7.32;;
40983;SDS011;26714;51.332;12.406;2024-02-26T16:00:06;13.43;;;7.57;;
40983;SDS011;26714;51.332;12.406;2024-02-26T16:03:36;13.80;;;6.45;;
40983;SDS011;26714;51.332;12.406;2024-02-26T16:06:43;15.85;;;6.85;;
40983;SDS011;26714;51.332;12.406;2024-02-26T16:10:23;17.00;;;8.15;;
40983;SDS011;26714;51.332;12.406;2024-02-26T16:16:52;15.88;;;7.28;;
40983;SDS011;26714;51.332;12.406;2024-02-26T16:20:24;15.07;;;7.03;;
40983;SDS011;26714;51.332;12.406;2024-02-26T16:31:06;19.77;;;7.88;;
40983;SDS011;26714;51.332;12.406;2024-02-26T16:34:39;16.00;;;8.13;;
40983;SDS011;26714;51.332;12.406;2024-02-26T16:38:44;20.85;;;9.27;;
40983;SDS011;26714;51.332;12.406;2024-02-26T16:42:41;16.60;;;7.82;;
40983;SDS011;26714;51.332;12.406;2024-02-26T16:46:09;15.85;;;7.60;;
40983;SDS011;26714;51.332;12.406;2024-02-26T16:50:17;17.75;;;8.10;;
40983;SDS011;26714;51.332;12.406;2024-02-26T16:54:19;14.13;;;8.65;;
40983;SDS011;26714;51.332;12.406;2024-02-26T16:57:20;15.90;;;8.55;;
40983;SDS011;26714;51.332;12.406;2024-02-26T17:01:28;16.92;;;8.15;;
40983;SDS011;26714;51.332;12.406;2024-02-26T17:05:18;15.90;;;8.60;;
40983;SDS011;26714;51.332;12.406;2024-02-26T17:08:55;21.77;;;9.52;;
40983;SDS011;26714;51.332;12.406;2024-02-26T17:11:42;18.40;;;8.77;;
40983;SDS011;26714;51.332;12.406;2024-02-26T17:15:10;22.75;;;9.07;;
40983;SDS011;26714;51.332;12.406;2024-02-26T17:18:31;21.55;;;8.90;;
40983;SDS011;26714;51.332;12.406;2024-02-26T17:21:20;23.42;;;10.52;;
40983;SDS011;26714;51.332;12.406;2024-02-26T17:24:48;22.73;;;8.15;;
40983;SDS011;26714;51.332;12.406;2024-02-26T17:28:27;20.83;;;9.52;;
40983;SDS011;26714;51.332;12.406;2024-02-26T17:32:12;16.90;;;9.30;;
40983;SDS011;26714;51.332;12.406;2024-02-26T17:34:59;17.65;;;9.32;;
40983;SDS011;26714;51.332;12.406;2024-02-26T17:38:28;17.83;;;9.40;;
40983;SDS011;26714;51.332;12.406;2024-02-26T17:42:05;22.17;;;9.10;;
40983;SDS011;26714;51.332;12.406;2024-02-26T17:45:19;17.98;;;9.50;;
40983;SDS011;26714;51.332;12.406;2024-02-26T17:47:58;19.45;;;9.55;;
40983;SDS011;26714;51.332;12.406;2024-02-26T17:50:54;19.08;;;8.68;;
40983;SDS011;26714;51.332;12.406;2024-02-26T17:54:36;18.88;;;9.10;;
40983;SDS011;26714;51.332;12.406;2024-02-26T18:05:42;16.05;;;8.50;;
40983;SDS011;26714;51.332;12.406;2024-02-26T18:08:27;15.88;;;8.57;;
40983;SDS011;26714;51.332;12.406;2024-02-26T18:11:10;16.08;;;8.63;;
40983;SDS011;26714;51.332;12.406;2024-02-26T18:15:02;19.58;;;8.57;;
40983;SDS011;26714;51.332;12.406;2024-02-26T18:18:18;15.65;;;7.97;;
40983;SDS011;26714;51.332;12.406;2024-02-26T18:21:19;20.85;;;9.48;;
40983;SDS011;26714;51.332;12.406;2024-02-26T18:24:29;16.05;;;8.63;;
40983;SDS011;26714;51.332;12.406;2024-02-26T18:27:41;19.25;;;8.68;;
40983;SDS011;26714;51.332;12.406;2024-02-26T18:31:03;18.00;;;9.82;;
40983;SDS011;26714;51.332;12.406;2024-02-26T18:40:29;16.17;;;9.05;;